createdAt,value
2022-07-29T00:03:04.000Z,18.1
2022-07-29T00:13:06.112Z,18
2022-07-29T00:23:07.769Z,18
2022-07-29T00:43:11.980Z,17.5
2022-07-29T01:13:18.499Z,17.2
2022-07-29T01:23:20.250Z,17
2022-07-29T01:33:22.088Z,16.9
2022-07-29T01:53:26.398Z,16.9
2022-07-29T02:03:28.924Z,16.7
2022-07-29T02:13:30.655Z,16.6
2022-07-29T02:23:33.027Z,16.6
2022-07-29T02:33:35.599Z,16.3
2022-07-29T02:53:39.709Z,16.2
2022-07-29T03:03:42.266Z,16
2022-07-29T03:13:44.848Z,16
2022-07-29T03:23:46.921Z,15.9
2022-07-29T03:33:49.086Z,16
2022-07-29T03:43:50.912Z,15.9
2022-07-29T03:53:53.723Z,15.8
2022-07-29T04:03:55.615Z,15.8
2022-07-29T04:13:57.801Z,16
2022-07-29T04:23:59.806Z,15.5
2022-07-29T04:34:02.153Z,15.8
2022-07-29T04:44:04.418Z,15.9
2022-07-29T04:54:07.038Z,16
2022-07-29T05:04:09.105Z,16.2
2022-07-29T05:14:11.195Z,16.2
2022-07-29T05:14:54.951Z,16.2
2022-07-29T05:24:20.816Z,16.2
2022-07-29T05:54:34.910Z,14.6
2022-07-29T06:04:37.148Z,14.6
2022-07-29T06:14:39.150Z,14.8
2022-07-29T06:24:41.380Z,15.3
2022-07-29T06:34:43.771Z,15.1
2022-07-29T06:44:46.164Z,14.5
2022-07-29T06:54:48.024Z,14.2
2022-07-29T07:04:50.614Z,14.8
2022-07-29T07:14:52.308Z,15.3
2022-07-29T07:24:54.371Z,15.5
2022-07-29T07:34:56.817Z,15.9
2022-07-29T07:45:12.874Z,16.2
2022-07-29T07:55:01.366Z,16.6
2022-07-29T08:05:03.354Z,17.1
2022-07-29T08:15:05.017Z,17.4
2022-07-29T08:25:07.123Z,17.6
2022-07-29T08:35:09.663Z,18.1
2022-07-29T08:45:11.979Z,18.2
2022-07-29T08:55:14.561Z,17.7
2022-07-29T09:05:17.054Z,17.7
2022-07-29T09:15:19.617Z,17.6
2022-07-29T09:25:21.656Z,17.2
2022-07-29T09:35:23.615Z,17.2
2022-07-29T09:45:25.470Z,17.2
2022-07-29T09:55:27.278Z,17.1
2022-07-29T10:15:31.177Z,17
2022-07-29T10:25:33.793Z,17.1
2022-07-29T10:35:36.387Z,16.8
2022-07-29T10:45:38.357Z,16.8
2022-07-29T10:55:41.909Z,16.7
2022-07-29T11:05:42.021Z,16.6
2022-07-29T11:15:44.440Z,16.9
2022-07-29T11:25:51.121Z,16.7
2022-07-29T11:36:00.696Z,16.8
2022-07-29T11:45:51.561Z,17.2
2022-07-29T11:55:53.519Z,16.9
2022-07-29T12:05:55.313Z,17.2
2022-07-29T12:15:59.870Z,17.7
2022-07-29T12:26:00.281Z,18.2
2022-07-29T12:36:07.135Z,18.3
2022-07-29T12:56:15.798Z,19.2
2022-07-29T13:06:09.893Z,19.7
2022-07-29T13:16:12.052Z,19.8
2022-07-29T13:26:14.624Z,19.8
2022-07-29T13:36:16.995Z,20.2
2022-07-29T13:46:19.265Z,20.8
2022-07-29T13:56:21.538Z,21
2022-07-29T14:06:23.239Z,21.6
2022-07-29T14:16:25.427Z,21.5
2022-07-29T14:26:27.487Z,22.4
2022-07-29T14:36:29.333Z,22.7
2022-07-29T14:46:31.881Z,22.5
2022-07-29T14:56:36.791Z,23
2022-07-29T15:06:36.521Z,23.2
2022-07-29T15:16:39.204Z,23.6
2022-07-29T15:36:52.752Z,23.5
2022-07-29T15:46:45.670Z,23.6
2022-07-29T15:56:47.926Z,23.8
2022-07-29T16:06:50.385Z,23.5
2022-07-29T16:16:52.549Z,23.8
2022-07-29T16:26:54.503Z,24.2
2022-07-29T16:36:56.527Z,24.3
2022-07-29T16:46:58.711Z,23.7
2022-07-29T16:57:01.259Z,23.7
2022-07-29T17:07:03.176Z,24
2022-07-29T17:17:05.416Z,23.6
2022-07-29T17:57:13.866Z,22.9
2022-07-29T18:07:15.718Z,23.3
2022-07-29T18:17:18.109Z,23.5
2022-07-29T19:07:28.908Z,21.5
2022-07-29T19:37:35.240Z,20.5
2022-07-29T19:47:37.739Z,20.3
2022-07-29T19:57:40.595Z,20.1
2022-07-29T20:07:41.523Z,19.8
2022-07-29T20:17:43.380Z,19.6
2022-07-29T20:27:45.123Z,19.1
2022-07-29T20:37:50.398Z,19
2022-07-29T20:47:49.878Z,18.8
2022-07-29T20:57:51.662Z,18.3
2022-07-29T21:07:57.843Z,18.2
2022-07-29T21:17:55.707Z,17.9
2022-07-29T21:27:57.387Z,17.9
2022-07-29T21:37:59.470Z,17.9
2022-07-29T21:48:01.572Z,17.7
2022-07-29T21:58:03.661Z,17.6
2022-07-29T22:08:05.692Z,17.4
2022-07-29T22:18:07.715Z,17.2
2022-07-29T22:28:10.361Z,17.2
2022-07-29T22:58:16.980Z,17
2022-07-29T23:08:18.695Z,17.1
2022-07-29T23:18:21.073Z,17
2022-07-29T23:38:25.789Z,16.5
2022-07-29T23:48:27.574Z,16.4
2022-07-29T23:58:29.989Z,16.2
